New Germantown, Pennsylvania
Current Conditions -  °F | °C
As of 7:56 PM on Tuesday 27 Jan 2015 (Local Time) from KCXY Reporting Station
Clear Clear  
Wind Chill: 18°   Ceiling: Unl
Heat Index: 29°   Visibility: 10mi
Dew Point:   Wind: 14mph
Humidity: 43%   Direction: 310°NW
Pressure: 29.87"   Gusts: 25mph
Location:  40.31°N, 77.57°W
Report Text: KCXY 280056Z 31012G22KT 10SM CLR M02/M13 A2987 RMK AO2 SLP119 T10171128
Loading
Personal Weather Stations






























Interactive Weather Map New forecast layout! Learn more

10-Day Weather Forecast

Advertisements
Track Severe Weather on mobile